createdAt,value
2017-06-03T00:01:41.399Z,23.08
2017-06-03T00:04:08.921Z,24.35
2017-06-03T00:06:36.476Z,23.90
2017-06-03T00:09:03.988Z,24.90
2017-06-03T00:11:31.495Z,24.90
2017-06-03T00:13:59.061Z,24.70
2017-06-03T00:16:26.576Z,22.30
2017-06-03T00:18:54.088Z,23.77
2017-06-03T00:21:21.639Z,23.10
2017-06-03T00:23:49.148Z,24.30
2017-06-03T00:26:16.655Z,22.87
2017-06-03T00:28:44.224Z,24.00
2017-06-03T00:31:11.732Z,23.40
2017-06-03T00:33:39.256Z,21.33
2017-06-03T00:36:06.788Z,21.77
2017-06-03T00:38:34.303Z,20.47
2017-06-03T00:41:01.841Z,22.80
2017-06-03T00:43:29.359Z,23.63
2017-06-03T00:45:56.902Z,21.97
2017-06-03T00:48:24.414Z,22.30
2017-06-03T00:50:53.132Z,21.60
2017-06-03T00:53:20.644Z,21.07
2017-06-03T00:55:48.927Z,22.40
2017-06-03T00:58:17.227Z,20.80
2017-06-03T01:00:44.736Z,21.60
2017-06-03T01:03:12.376Z,20.60
2017-06-03T01:05:39.883Z,22.00
2017-06-03T01:08:08.164Z,21.70
2017-06-03T01:10:36.576Z,23.90
2017-06-03T01:13:04.092Z,22.92
2017-06-03T01:15:31.608Z,24.20
2017-06-03T01:17:59.159Z,21.03
2017-06-03T01:20:26.675Z,21.10
2017-06-03T01:22:55.000Z,23.17
2017-06-03T01:25:22.560Z,20.77
2017-06-03T01:27:50.075Z,20.33
2017-06-03T01:30:18.378Z,21.93
2017-06-03T01:32:45.905Z,21.93
2017-06-03T01:35:13.436Z,23.10
2017-06-03T01:37:40.929Z,21.77
2017-06-03T01:40:09.239Z,20.77
2017-06-03T01:42:36.745Z,21.40
2017-06-03T01:45:04.354Z,19.90
2017-06-03T01:47:31.921Z,19.47
2017-06-03T01:49:59.425Z,19.23
2017-06-03T01:52:26.961Z,16.90
2017-06-03T01:54:54.499Z,17.95
2017-06-03T01:57:22.061Z,20.08
2017-06-03T01:59:49.723Z,18.90
2017-06-03T02:02:17.287Z,18.93
2017-06-03T02:04:44.838Z,21.30
2017-06-03T02:07:12.370Z,21.30
2017-06-03T02:09:40.676Z,19.70
2017-06-03T02:12:09.870Z,19.90
2017-06-03T02:14:37.530Z,18.27
2017-06-03T02:17:05.096Z,18.13
2017-06-03T02:19:32.654Z,19.47
2017-06-03T02:22:00.319Z,21.35
2017-06-03T02:24:27.818Z,19.70
2017-06-03T02:26:55.334Z,20.20
2017-06-03T02:29:23.814Z,19.23
2017-06-03T02:31:51.310Z,19.27
2017-06-03T02:34:18.834Z,19.70
2017-06-03T02:36:46.366Z,19.43
2017-06-03T02:39:14.671Z,19.50
2017-06-03T02:41:42.173Z,21.20
2017-06-03T02:44:09.889Z,19.90
2017-06-03T02:46:37.385Z,20.70
2017-06-03T02:49:04.887Z,18.23
2017-06-03T02:51:33.207Z,19.03
2017-06-03T02:54:00.750Z,18.25
2017-06-03T02:56:28.311Z,17.50
2017-06-03T02:58:55.842Z,17.60
2017-06-03T03:01:24.106Z,18.60
2017-06-03T03:03:51.634Z,18.07
2017-06-03T03:06:19.161Z,15.90
2017-06-03T03:08:46.722Z,19.23
2017-06-03T03:11:14.282Z,18.80
2017-06-03T03:13:41.790Z,20.12
2017-06-03T03:16:09.295Z,19.62
2017-06-03T03:18:36.845Z,17.25
2017-06-03T03:21:05.139Z,17.00
2017-06-03T03:23:32.698Z,19.48
2017-06-03T03:26:00.231Z,20.10
2017-06-03T03:28:28.525Z,17.67
2017-06-03T03:30:56.093Z,19.62
2017-06-03T03:33:23.754Z,18.95
2017-06-03T03:35:51.317Z,19.67
2017-06-03T03:38:18.878Z,20.03
2017-06-03T03:40:46.438Z,20.27
2017-06-03T03:43:13.998Z,18.97
2017-06-03T03:45:41.561Z,21.17
2017-06-03T03:48:09.218Z,21.67
2017-06-03T03:50:36.722Z,23.30
2017-06-03T03:53:04.226Z,23.30
2017-06-03T03:55:32.521Z,23.23
2017-06-03T03:58:00.079Z,23.00
2017-06-03T04:00:27.855Z,25.35
2017-06-03T04:02:55.398Z,23.80
2017-06-03T04:05:22.902Z,23.60
2017-06-03T04:07:50.522Z,27.93
2017-06-03T04:10:18.030Z,28.33
2017-06-03T04:12:45.529Z,29.40
2017-06-03T04:15:13.102Z,29.00
2017-06-03T04:17:40.660Z,30.30
2017-06-03T04:20:08.218Z,30.90
2017-06-03T04:22:35.773Z,32.50
2017-06-03T04:25:03.269Z,30.03
2017-06-03T04:27:30.773Z,32.07
2017-06-03T04:29:59.174Z,32.40
2017-06-03T04:32:26.738Z,33.20
2017-06-03T04:34:54.235Z,34.47
2017-06-03T04:37:21.854Z,33.33
2017-06-03T04:39:49.378Z,35.20
2017-06-03T04:42:16.974Z,34.47
2017-06-03T04:44:44.538Z,34.43
2017-06-03T04:47:12.098Z,33.30
2017-06-03T04:49:39.654Z,34.07
2017-06-03T04:52:07.318Z,34.20
2017-06-03T04:54:34.881Z,33.93
2017-06-03T04:57:02.378Z,31.47
2017-06-03T04:59:30.002Z,31.90
2017-06-03T05:01:57.543Z,32.90
2017-06-03T05:04:25.806Z,32.93
2017-06-03T05:06:53.402Z,33.80
2017-06-03T05:09:21.162Z,32.37
2017-06-03T05:11:48.666Z,30.03
2017-06-03T05:14:16.168Z,33.60
2017-06-03T05:16:43.695Z,32.00
2017-06-03T05:19:11.194Z,31.77
2017-06-03T05:21:38.721Z,30.63
2017-06-03T05:24:06.247Z,32.20
2017-06-03T05:26:33.771Z,31.80
2017-06-03T05:29:01.270Z,29.87
2017-06-03T05:31:28.799Z,32.80
2017-06-03T05:33:56.298Z,30.70
2017-06-03T05:36:23.793Z,30.93
2017-06-03T05:38:52.082Z,30.30
2017-06-03T05:41:19.714Z,29.53
2017-06-03T05:43:47.214Z,30.10
2017-06-03T05:46:14.714Z,29.50
2017-06-03T05:48:42.239Z,30.47
2017-06-03T05:51:09.739Z,27.87
2017-06-03T05:53:37.650Z,29.70
2017-06-03T05:56:05.163Z,27.50
2017-06-03T05:58:32.662Z,29.30
2017-06-03T06:01:00.210Z,28.67
2017-06-03T06:03:28.474Z,31.17
2017-06-03T06:05:56.070Z,29.43
2017-06-03T06:08:23.626Z,28.70
2017-06-03T06:10:51.186Z,29.37
2017-06-03T06:13:18.686Z,30.00
2017-06-03T06:15:46.306Z,29.13
2017-06-03T06:18:13.866Z,29.90
2017-06-03T06:20:41.426Z,28.60
2017-06-03T06:23:08.986Z,27.90
2017-06-03T06:25:36.546Z,26.80
2017-06-03T06:28:04.206Z,27.93
2017-06-03T06:30:31.705Z,28.10
2017-06-03T06:32:59.226Z,26.80
2017-06-03T06:35:26.786Z,26.87
2017-06-03T06:37:54.286Z,27.73
2017-06-03T06:40:21.807Z,26.63
2017-06-03T06:42:49.466Z,28.60
2017-06-03T06:45:17.029Z,29.67
2017-06-03T06:47:44.586Z,30.63
2017-06-03T06:50:12.145Z,29.40
2017-06-03T06:52:39.711Z,27.00
2017-06-03T06:55:07.210Z,28.87
2017-06-03T06:57:34.711Z,27.40
2017-06-03T07:00:03.030Z,26.07
2017-06-03T07:02:30.526Z,26.30
2017-06-03T07:04:58.122Z,26.60
2017-06-03T07:07:25.821Z,26.13
2017-06-03T07:09:53.447Z,25.50
2017-06-03T07:12:20.950Z,26.23
2017-06-03T07:14:48.515Z,26.00
2017-06-03T07:17:16.038Z,24.93
2017-06-03T07:19:43.686Z,25.93
2017-06-03T07:22:11.182Z,25.03
2017-06-03T07:24:38.701Z,25.87
2017-06-03T07:27:06.462Z,23.53
2017-06-03T07:29:34.030Z,23.47
2017-06-03T07:32:01.532Z,22.30
2017-06-03T07:34:29.145Z,21.63
2017-06-03T07:36:56.646Z,23.00
2017-06-03T07:39:24.266Z,20.20
2017-06-03T07:41:51.762Z,18.30
2017-06-03T07:44:19.285Z,18.00
2017-06-03T07:46:46.846Z,18.70
2017-06-03T07:49:14.410Z,17.57
2017-06-03T07:51:41.965Z,16.87
2017-06-03T07:54:09.630Z,15.20
2017-06-03T07:56:37.130Z,14.47
2017-06-03T07:59:04.650Z,11.03
2017-06-03T08:01:32.310Z,9.73
2017-06-03T08:03:59.876Z,9.80
2017-06-03T08:06:27.434Z,10.67
2017-06-03T08:08:55.090Z,10.80
2017-06-03T08:11:22.654Z,10.40
2017-06-03T08:13:50.214Z,9.33
2017-06-03T08:16:17.753Z,8.20
2017-06-03T08:18:46.010Z,7.87
2017-06-03T08:21:13.610Z,11.37
2017-06-03T08:23:41.374Z,12.30
2017-06-03T08:26:08.874Z,11.20
2017-06-03T08:28:36.374Z,12.90
2017-06-03T08:31:04.771Z,11.13
2017-06-03T08:33:32.334Z,12.60
2017-06-03T08:35:59.830Z,12.23
2017-06-03T08:38:27.354Z,11.87
2017-06-03T08:40:54.914Z,13.87
2017-06-03T08:43:22.469Z,13.77
2017-06-03T08:45:49.998Z,14.80
2017-06-03T08:48:17.542Z,15.13
2017-06-03T08:50:45.037Z,14.90
2017-06-03T08:53:13.326Z,14.23
2017-06-03T08:55:40.887Z,14.90
2017-06-03T08:58:08.445Z,13.67
2017-06-03T09:00:35.982Z,13.20
2017-06-03T09:03:04.602Z,14.30
2017-06-03T09:05:32.150Z,14.80
2017-06-03T09:07:59.654Z,16.10
2017-06-03T09:10:27.186Z,15.87
2017-06-03T09:12:54.729Z,15.43
2017-06-03T09:15:22.234Z,15.43
2017-06-03T09:17:49.855Z,13.80
2017-06-03T09:20:17.405Z,13.40
2017-06-03T09:22:44.973Z,13.70
2017-06-03T09:25:12.526Z,13.40
2017-06-03T09:27:40.088Z,11.37
2017-06-03T09:30:07.582Z,9.20
2017-06-03T09:32:35.083Z,9.60
2017-06-03T09:35:03.482Z,9.80
2017-06-03T09:37:31.046Z,11.50
2017-06-03T09:39:58.606Z,11.23
2017-06-03T09:42:26.148Z,9.20
2017-06-03T09:44:54.442Z,10.80
2017-06-03T09:47:22.003Z,10.90
2017-06-03T09:49:49.562Z,12.93
2017-06-03T09:52:17.123Z,15.47
2017-06-03T09:54:44.618Z,12.27
2017-06-03T09:57:12.226Z,10.90
2017-06-03T09:59:40.518Z,9.33
2017-06-03T10:02:08.018Z,12.67
2017-06-03T10:04:35.638Z,9.40
2017-06-03T10:07:03.198Z,9.77
2017-06-03T10:09:30.763Z,10.07
2017-06-03T10:11:58.322Z,7.53
2017-06-03T10:14:25.874Z,7.80
2017-06-03T10:16:53.443Z,7.03
2017-06-03T10:19:20.933Z,7.30
2017-06-03T10:21:48.457Z,8.87
2017-06-03T10:24:15.998Z,8.17
2017-06-03T10:26:44.289Z,8.63
2017-06-03T10:29:11.854Z,8.07
2017-06-03T10:31:39.378Z,8.23
2017-06-03T10:34:06.971Z,7.80
2017-06-03T10:36:34.534Z,8.57
2017-06-03T10:39:02.090Z,8.37
2017-06-03T10:41:29.749Z,7.97
2017-06-03T10:43:58.002Z,8.20
2017-06-03T10:46:25.596Z,7.20
2017-06-03T10:48:53.153Z,7.93
2017-06-03T10:51:20.715Z,11.20
2017-06-03T10:53:48.206Z,10.30
2017-06-03T10:56:15.834Z,9.60
2017-06-03T10:58:43.398Z,8.80
2017-06-03T11:01:10.959Z,6.27
2017-06-03T11:03:38.614Z,7.80
2017-06-03T11:06:06.174Z,7.30
2017-06-03T11:08:33.738Z,8.50
2017-06-03T11:11:02.117Z,11.37
2017-06-03T11:13:29.610Z,9.93
2017-06-03T11:15:57.137Z,11.53
2017-06-03T11:18:24.694Z,9.83
2017-06-03T11:20:52.257Z,8.97
2017-06-03T11:23:19.814Z,7.90
2017-06-03T11:25:47.907Z,6.20
2017-06-03T11:28:15.607Z,6.67
2017-06-03T11:30:43.556Z,6.00
2017-06-03T11:33:11.303Z,8.87
2017-06-03T11:35:39.066Z,6.63
2017-06-03T11:38:06.968Z,6.40
2017-06-03T11:40:34.700Z,6.43
2017-06-03T11:43:02.201Z,6.30
2017-06-03T11:45:29.798Z,4.90
2017-06-03T11:47:57.291Z,5.17
2017-06-03T11:50:24.817Z,4.17
2017-06-03T11:52:52.382Z,5.33
2017-06-03T11:55:19.938Z,5.03
2017-06-03T11:57:47.490Z,4.87
2017-06-03T12:00:16.181Z,4.43
2017-06-03T12:02:43.747Z,5.60
2017-06-03T12:05:11.302Z,4.90
2017-06-03T12:07:38.973Z,5.27
2017-06-03T12:10:06.530Z,4.37
2017-06-03T12:12:34.090Z,3.63
2017-06-03T12:15:01.651Z,3.70
2017-06-03T12:17:29.210Z,3.83
2017-06-03T12:19:56.702Z,4.70
2017-06-03T12:22:24.218Z,4.37
2017-06-03T12:24:52.510Z,4.07
2017-06-03T12:27:19.998Z,4.30
2017-06-03T12:29:47.626Z,4.17
2017-06-03T12:32:15.183Z,4.30
2017-06-03T12:34:42.745Z,4.80
2017-06-03T12:37:10.302Z,5.10
2017-06-03T12:39:37.866Z,4.53
2017-06-03T12:42:05.418Z,3.80
2017-06-03T12:44:33.681Z,4.70
2017-06-03T12:47:01.939Z,5.07
2017-06-03T12:49:29.538Z,4.10
2017-06-03T12:51:57.102Z,4.40
2017-06-03T12:54:24.708Z,3.70
2017-06-03T12:56:52.354Z,3.77
2017-06-03T12:59:20.108Z,5.33
2017-06-03T13:01:47.991Z,4.80
2017-06-03T13:04:15.583Z,5.30
2017-06-03T13:06:43.401Z,5.70
2017-06-03T13:09:11.166Z,5.20
2017-06-03T13:11:39.034Z,4.90
2017-06-03T13:14:06.698Z,15.03
2017-06-03T13:16:34.287Z,7.97
2017-06-03T13:19:02.328Z,6.20
2017-06-03T13:21:30.093Z,5.77
2017-06-03T13:23:57.876Z,5.63
2017-06-03T13:26:26.648Z,5.33
2017-06-03T13:28:54.327Z,4.27
2017-06-03T13:31:22.177Z,5.30
2017-06-03T13:33:50.044Z,5.30
2017-06-03T13:36:17.707Z,5.93
2017-06-03T13:38:45.574Z,6.57
2017-06-03T13:41:13.441Z,5.90
2017-06-03T13:43:41.207Z,5.67
2017-06-03T13:46:09.075Z,4.70
2017-06-03T13:48:36.619Z,5.00
2017-06-03T13:51:04.134Z,5.10
2017-06-03T13:53:31.630Z,5.43
2017-06-03T13:55:59.190Z,6.20
2017-06-03T13:58:26.761Z,5.70
2017-06-03T14:00:54.315Z,7.00
2017-06-03T14:03:21.806Z,8.10
2017-06-03T14:05:49.354Z,8.17
2017-06-03T14:08:16.890Z,7.87
2017-06-03T14:10:44.459Z,7.17
2017-06-03T14:13:12.005Z,7.43
2017-06-03T14:15:39.493Z,6.67
2017-06-03T14:18:07.031Z,6.90
2017-06-03T14:20:34.586Z,7.67
2017-06-03T14:23:02.146Z,7.00
2017-06-03T14:25:29.682Z,6.43
2017-06-03T14:27:57.942Z,6.20
2017-06-03T14:30:25.430Z,5.77
2017-06-03T14:32:53.725Z,6.00
2017-06-03T14:35:21.278Z,5.33
2017-06-03T14:37:48.846Z,5.33
2017-06-03T14:40:16.814Z,5.43
2017-06-03T14:42:44.371Z,5.37
2017-06-03T14:45:11.922Z,4.87
2017-06-03T14:47:39.452Z,4.90
2017-06-03T14:50:06.979Z,5.70
2017-06-03T14:52:34.510Z,4.97
2017-06-03T14:55:02.474Z,5.03
2017-06-03T14:57:30.037Z,5.03
2017-06-03T14:59:57.521Z,4.50
2017-06-03T15:02:25.158Z,4.33
2017-06-03T15:04:52.645Z,4.77
2017-06-03T15:07:20.178Z,4.77
2017-06-03T15:09:47.736Z,4.20
2017-06-03T15:12:15.235Z,7.83
2017-06-03T15:14:42.758Z,5.10
2017-06-03T15:17:11.178Z,5.30
2017-06-03T15:19:38.790Z,4.90
2017-06-03T15:22:07.809Z,4.60
2017-06-03T15:24:35.358Z,5.70
2017-06-03T15:27:02.846Z,6.83
2017-06-03T15:29:30.511Z,4.30
2017-06-03T15:31:58.033Z,4.60
2017-06-03T15:34:25.524Z,3.77
2017-06-03T15:36:53.158Z,4.37
2017-06-03T15:39:20.710Z,3.90
2017-06-03T15:41:48.195Z,4.10
2017-06-03T15:44:16.238Z,4.53
2017-06-03T15:46:43.803Z,4.40
2017-06-03T15:49:11.364Z,4.03
2017-06-03T15:51:38.881Z,3.80
2017-06-03T15:54:06.475Z,3.87
2017-06-03T15:56:33.966Z,4.17
2017-06-03T15:59:01.518Z,3.93
2017-06-03T16:01:29.058Z,3.90
2017-06-03T16:03:56.614Z,4.53
2017-06-03T16:06:24.174Z,4.30
2017-06-03T16:08:52.424Z,4.07
2017-06-03T16:11:19.932Z,4.67
2017-06-03T16:13:47.477Z,3.80
2017-06-03T16:16:15.038Z,3.90
2017-06-03T16:18:42.594Z,3.77
2017-06-03T16:21:10.110Z,4.70
2017-06-03T16:23:38.017Z,5.30
2017-06-03T16:26:05.579Z,4.70
2017-06-03T16:28:33.138Z,5.10
2017-06-03T16:31:00.806Z,5.70
2017-06-03T16:33:28.362Z,5.40
2017-06-03T16:35:55.864Z,5.00
2017-06-03T16:38:24.219Z,5.33
2017-06-03T16:40:51.766Z,6.10
2017-06-03T16:43:19.321Z,6.30
2017-06-03T16:45:46.882Z,6.50
2017-06-03T16:48:14.374Z,7.00
2017-06-03T16:50:41.861Z,6.63
2017-06-03T16:53:10.178Z,6.57
2017-06-03T16:55:37.942Z,8.07
2017-06-03T16:58:06.629Z,7.70
2017-06-03T17:00:34.393Z,8.77
2017-06-03T17:03:02.088Z,9.40
2017-06-03T17:05:29.924Z,9.57
2017-06-03T17:07:58.303Z,8.37
2017-06-03T17:10:26.172Z,9.60
2017-06-03T17:12:53.710Z,10.80
2017-06-03T17:15:21.276Z,12.77
2017-06-03T17:17:48.835Z,11.20
2017-06-03T17:20:16.335Z,11.80
2017-06-03T17:22:44.054Z,11.53
2017-06-03T17:25:11.614Z,11.80
2017-06-03T17:27:39.115Z,11.07
2017-06-03T17:30:06.734Z,11.87
2017-06-03T17:32:34.298Z,14.13
2017-06-03T17:35:01.804Z,16.30
2017-06-03T17:37:29.415Z,18.00
2017-06-03T17:39:56.979Z,18.80
2017-06-03T17:42:24.538Z,16.10
2017-06-03T17:44:52.093Z,19.27
2017-06-03T17:47:19.658Z,23.87
2017-06-03T17:49:47.154Z,21.20
2017-06-03T17:52:14.758Z,20.90
2017-06-03T17:54:43.050Z,24.10
2017-06-03T17:57:10.819Z,23.57
2017-06-03T17:59:38.323Z,25.43
2017-06-03T18:02:05.823Z,26.97
2017-06-03T18:04:34.319Z,23.20
2017-06-03T18:07:01.818Z,25.17
2017-06-03T18:09:29.339Z,25.40
2017-06-03T18:11:56.882Z,28.97
2017-06-03T18:14:25.154Z,29.00
2017-06-03T18:16:53.454Z,26.67
2017-06-03T18:19:21.110Z,24.63
2017-06-03T18:21:48.609Z,25.87
2017-06-03T18:24:16.109Z,29.43
2017-06-03T18:26:44.610Z,30.07
2017-06-03T18:29:12.177Z,29.47
2017-06-03T18:31:39.734Z,28.93
2017-06-03T18:34:07.875Z,28.80
2017-06-03T18:36:35.374Z,28.80
2017-06-03T18:39:02.874Z,29.87
2017-06-03T18:41:30.407Z,27.97
2017-06-03T18:43:57.931Z,28.03
2017-06-03T18:46:25.474Z,26.97
2017-06-03T18:48:53.742Z,25.27
2017-06-03T18:51:21.239Z,26.70
2017-06-03T18:53:48.773Z,23.40
2017-06-03T18:56:17.034Z,23.53
2017-06-03T18:58:44.630Z,22.87
2017-06-03T19:01:13.763Z,21.40
2017-06-03T19:03:41.292Z,20.63
2017-06-03T19:06:08.799Z,20.30
2017-06-03T19:08:36.322Z,20.10
2017-06-03T19:11:03.869Z,18.43
2017-06-03T19:13:31.426Z,22.23
2017-06-03T19:15:58.985Z,19.93
2017-06-03T19:18:26.486Z,21.33
2017-06-03T19:20:54.078Z,23.00
2017-06-03T19:23:21.665Z,20.80
2017-06-03T19:25:49.326Z,21.10
2017-06-03T19:28:16.990Z,26.63
2017-06-03T19:30:44.551Z,22.43
2017-06-03T19:33:12.109Z,22.27
2017-06-03T19:35:39.775Z,22.80
2017-06-03T19:38:07.339Z,24.33
2017-06-03T19:40:34.894Z,36.30
2017-06-03T19:43:02.438Z,29.60
2017-06-03T19:45:30.706Z,30.17
2017-06-03T19:47:59.011Z,26.37
2017-06-03T19:50:26.574Z,29.90
2017-06-03T19:52:54.082Z,30.37
2017-06-03T19:55:21.691Z,27.23
2017-06-03T19:57:49.231Z,32.20
2017-06-03T20:00:17.498Z,44.47
2017-06-03T20:02:45.803Z,30.13
2017-06-03T20:05:13.363Z,31.13
2017-06-03T20:07:40.925Z,29.07
2017-06-03T20:10:08.483Z,30.90
2017-06-03T20:12:36.041Z,26.97
2017-06-03T20:15:03.597Z,27.90
2017-06-03T20:17:31.125Z,28.10
2017-06-03T20:19:58.722Z,26.00
2017-06-03T20:22:26.279Z,25.40
2017-06-03T20:24:54.146Z,22.80
2017-06-03T20:27:21.705Z,22.40
2017-06-03T20:29:49.206Z,20.90
2017-06-03T20:32:16.926Z,20.93
2017-06-03T20:34:44.494Z,20.40
2017-06-03T20:37:11.995Z,22.40
2017-06-03T20:39:39.605Z,21.30
2017-06-03T20:42:07.187Z,22.83
2017-06-03T20:44:34.730Z,19.93
2017-06-03T20:47:02.270Z,18.83
2017-06-03T20:49:30.576Z,18.60
2017-06-03T20:51:58.075Z,19.47
2017-06-03T20:54:25.688Z,17.50
2017-06-03T20:56:53.289Z,17.05
2017-06-03T20:59:20.798Z,17.98
2017-06-03T21:01:48.375Z,17.27
2017-06-03T21:04:15.981Z,15.55
2017-06-03T21:06:44.427Z,14.80
2017-06-03T21:09:12.212Z,16.30
2017-06-03T21:11:40.059Z,15.47
2017-06-03T21:14:07.842Z,16.62
2017-06-03T21:16:35.541Z,15.52
2017-06-03T21:19:04.089Z,16.00
2017-06-03T21:21:31.728Z,15.60
2017-06-03T21:23:59.517Z,14.85
2017-06-03T21:26:27.321Z,16.10
2017-06-03T21:28:55.086Z,17.73
2017-06-03T21:31:22.952Z,19.35
2017-06-03T21:33:50.717Z,21.58
2017-06-03T21:36:18.482Z,22.80
2017-06-03T21:38:46.144Z,22.80
2017-06-03T21:41:13.889Z,23.80
2017-06-03T21:43:41.450Z,23.70
2017-06-03T21:46:08.954Z,22.62
2017-06-03T21:48:36.586Z,24.45
2017-06-03T21:51:04.130Z,24.77
2017-06-03T21:53:31.690Z,29.27
2017-06-03T21:55:59.249Z,27.42
2017-06-03T21:58:26.749Z,28.48
2017-06-03T22:00:54.266Z,28.15
2017-06-03T22:03:22.237Z,28.67
2017-06-03T22:05:49.798Z,35.38
2017-06-03T22:08:17.298Z,31.10
2017-06-03T22:10:44.834Z,28.92
2017-06-03T22:13:12.358Z,32.35
2017-06-03T22:15:40.754Z,29.58
2017-06-03T22:18:08.282Z,29.33
2017-06-03T22:20:36.591Z,30.88
2017-06-03T22:23:04.153Z,29.73
2017-06-03T22:25:31.709Z,27.33
2017-06-03T22:27:59.233Z,28.23
2017-06-03T22:30:26.733Z,28.38
2017-06-03T22:32:54.390Z,28.87
2017-06-03T22:35:21.950Z,27.15
2017-06-03T22:37:49.449Z,28.35
2017-06-03T22:40:17.069Z,29.50
2017-06-03T22:42:44.629Z,35.22
2017-06-03T22:45:12.190Z,30.62
2017-06-03T22:47:39.754Z,31.70
2017-06-03T22:50:07.309Z,31.55
2017-06-03T22:52:34.840Z,30.98
2017-06-03T22:55:03.154Z,28.50
2017-06-03T22:57:30.710Z,29.10
2017-06-03T22:59:58.270Z,31.37
2017-06-03T23:02:26.139Z,37.53
2017-06-03T23:04:53.642Z,36.92
2017-06-03T23:07:21.146Z,32.17
2017-06-03T23:09:48.675Z,33.03
2017-06-03T23:12:16.174Z,31.77
2017-06-03T23:14:43.731Z,32.60
2017-06-03T23:17:11.394Z,36.10
2017-06-03T23:19:38.958Z,36.70
2017-06-03T23:22:06.462Z,35.38
2017-06-03T23:24:34.070Z,36.72
2017-06-03T23:27:01.567Z,33.28
2017-06-03T23:29:29.066Z,34.05
2017-06-03T23:31:57.371Z,35.10
2017-06-03T23:34:24.926Z,34.80
2017-06-03T23:36:52.470Z,35.00
2017-06-03T23:39:20.765Z,34.85
2017-06-03T23:41:48.266Z,36.33
2017-06-03T23:44:16.190Z,35.35
2017-06-03T23:46:43.690Z,35.75
2017-06-03T23:49:11.186Z,34.88
2017-06-03T23:51:39.578Z,32.08
2017-06-03T23:54:07.842Z,27.37
2017-06-03T23:56:36.101Z,23.42
2017-06-03T23:59:04.009Z,18.15
